sensor_id;sensor_type;location;lat;lon;timestamp;temperature;humidity
17599;DHT22;8918;52.092;5.232;2023-08-12T00:00:09;19.90;99.90
17599;DHT22;8918;52.092;5.232;2023-08-12T00:02:38;19.90;99.90
17599;DHT22;8918;52.092;5.232;2023-08-12T00:05:05;19.90;99.90
17599;DHT22;8918;52.092;5.232;2023-08-12T00:07:31;19.90;99.90
17599;DHT22;8918;52.092;5.232;2023-08-12T00:09:58;19.90;99.90
17599;DHT22;8918;52.092;5.232;2023-08-12T00:12:24;19.90;99.90
17599;DHT22;8918;52.092;5.232;2023-08-12T00:14:49;19.90;99.90
17599;DHT22;8918;52.092;5.232;2023-08-12T00:17:15;19.80;99.90
17599;DHT22;8918;52.092;5.232;2023-08-12T00:19:41;19.80;99.90
17599;DHT22;8918;52.092;5.232;2023-08-12T00:22:06;19.80;99.90
17599;DHT22;8918;52.092;5.232;2023-08-12T00:24:32;19.80;99.90
17599;DHT22;8918;52.092;5.232;2023-08-12T00:26:57;19.80;99.90
17599;DHT22;8918;52.092;5.232;2023-08-12T00:29:24;19.80;99.90
17599;DHT22;8918;52.092;5.232;2023-08-12T00:31:49;19.80;99.90
17599;DHT22;8918;52.092;5.232;2023-08-12T00:34:15;19.80;99.90
17599;DHT22;8918;52.092;5.232;2023-08-12T00:36:41;19.80;99.90
17599;DHT22;8918;52.092;5.232;2023-08-12T00:39:06;19.80;99.90
17599;DHT22;8918;52.092;5.232;2023-08-12T00:41:32;19.80;99.90
17599;DHT22;8918;52.092;5.232;2023-08-12T00:43:57;19.80;99.90
17599;DHT22;8918;52.092;5.232;2023-08-12T00:46:23;19.80;99.90
17599;DHT22;8918;52.092;5.232;2023-08-12T00:48:50;19.80;99.90
17599;DHT22;8918;52.092;5.232;2023-08-12T00:51:16;19.80;99.90
17599;DHT22;8918;52.092;5.232;2023-08-12T00:53:42;19.70;99.90
17599;DHT22;8918;52.092;5.232;2023-08-12T00:56:08;19.80;99.90
17599;DHT22;8918;52.092;5.232;2023-08-12T00:58:35;19.70;99.90
17599;DHT22;8918;52.092;5.232;2023-08-12T01:01:01;19.70;99.90
17599;DHT22;8918;52.092;5.232;2023-08-12T01:03:26;19.70;99.90
17599;DHT22;8918;52.092;5.232;2023-08-12T01:05:52;19.70;99.90
17599;DHT22;8918;52.092;5.232;2023-08-12T01:08:18;19.70;99.90
17599;DHT22;8918;52.092;5.232;2023-08-12T01:10:48;19.70;99.90
17599;DHT22;8918;52.092;5.232;2023-08-12T01:13:46;19.70;99.90
17599;DHT22;8918;52.092;5.232;2023-08-12T01:16:16;19.60;99.90
17599;DHT22;8918;52.092;5.232;2023-08-12T01:18:43;19.70;99.90
17599;DHT22;8918;52.092;5.232;2023-08-12T01:21:11;19.60;99.90
17599;DHT22;8918;52.092;5.232;2023-08-12T01:23:41;19.60;99.90
17599;DHT22;8918;52.092;5.232;2023-08-12T01:26:06;19.60;99.90
17599;DHT22;8918;52.092;5.232;2023-08-12T01:28:32;19.60;99.90
17599;DHT22;8918;52.092;5.232;2023-08-12T01:31:08;19.60;99.90
17599;DHT22;8918;52.092;5.232;2023-08-12T01:33:49;19.60;99.90
17599;DHT22;8918;52.092;5.232;2023-08-12T01:36:19;19.60;99.90
17599;DHT22;8918;52.092;5.232;2023-08-12T01:38:46;19.50;99.90
17599;DHT22;8918;52.092;5.232;2023-08-12T01:41:13;19.60;99.90
17599;DHT22;8918;52.092;5.232;2023-08-12T01:43:41;19.50;99.90
17599;DHT22;8918;52.092;5.232;2023-08-12T01:46:07;19.50;99.90
17599;DHT22;8918;52.092;5.232;2023-08-12T01:48:32;19.50;99.90
17599;DHT22;8918;52.092;5.232;2023-08-12T01:50:58;19.50;99.90
17599;DHT22;8918;52.092;5.232;2023-08-12T01:53:24;19.50;99.90
17599;DHT22;8918;52.092;5.232;2023-08-12T01:55:50;19.50;99.90
17599;DHT22;8918;52.092;5.232;2023-08-12T01:58:16;19.60;99.90
17599;DHT22;8918;52.092;5.232;2023-08-12T02:00:42;19.50;99.90
17599;DHT22;8918;52.092;5.232;2023-08-12T02:03:07;19.50;99.90
17599;DHT22;8918;52.092;5.232;2023-08-12T02:05:33;19.50;99.90
17599;DHT22;8918;52.092;5.232;2023-08-12T02:07:59;19.60;99.90
17599;DHT22;8918;52.092;5.232;2023-08-12T02:10:24;19.50;99.90
17599;DHT22;8918;52.092;5.232;2023-08-12T02:12:50;19.60;99.90
17599;DHT22;8918;52.092;5.232;2023-08-12T02:15:16;19.60;99.90
17599;DHT22;8918;52.092;5.232;2023-08-12T02:17:41;19.60;99.90
17599;DHT22;8918;52.092;5.232;2023-08-12T02:20:07;19.60;99.90
17599;DHT22;8918;52.092;5.232;2023-08-12T02:22:33;19.60;99.90
17599;DHT22;8918;52.092;5.232;2023-08-12T02:24:59;19.60;99.90
17599;DHT22;8918;52.092;5.232;2023-08-12T02:27:25;19.60;99.90
17599;DHT22;8918;52.092;5.232;2023-08-12T02:29:51;19.60;99.90
17599;DHT22;8918;52.092;5.232;2023-08-12T02:32:16;19.60;99.90
17599;DHT22;8918;52.092;5.232;2023-08-12T02:34:42;19.60;99.90
17599;DHT22;8918;52.092;5.232;2023-08-12T02:37:07;19.60;99.90
17599;DHT22;8918;52.092;5.232;2023-08-12T02:39:33;19.60;99.90
17599;DHT22;8918;52.092;5.232;2023-08-12T02:41:59;19.60;99.90
17599;DHT22;8918;52.092;5.232;2023-08-12T02:44:24;19.60;99.90
17599;DHT22;8918;52.092;5.232;2023-08-12T02:46:50;19.60;99.90
17599;DHT22;8918;52.092;5.232;2023-08-12T02:49:15;19.60;99.90
17599;DHT22;8918;52.092;5.232;2023-08-12T02:51:41;19.60;99.90
17599;DHT22;8918;52.092;5.232;2023-08-12T02:54:06;19.60;99.90
17599;DHT22;8918;52.092;5.232;2023-08-12T02:56:32;19.60;99.90
17599;DHT22;8918;52.092;5.232;2023-08-12T02:58:58;19.60;99.90
17599;DHT22;8918;52.092;5.232;2023-08-12T03:01:23;19.60;99.90
17599;DHT22;8918;52.092;5.232;2023-08-12T03:03:50;19.70;99.90
17599;DHT22;8918;52.092;5.232;2023-08-12T03:06:16;19.60;99.90
17599;DHT22;8918;52.092;5.232;2023-08-12T03:08:41;19.70;99.90
17599;DHT22;8918;52.092;5.232;2023-08-12T03:11:07;19.70;99.90
17599;DHT22;8918;52.092;5.232;2023-08-12T03:13:33;19.70;99.90
17599;DHT22;8918;52.092;5.232;2023-08-12T03:15:58;19.70;99.90
17599;DHT22;8918;52.092;5.232;2023-08-12T03:18:24;19.70;99.90
17599;DHT22;8918;52.092;5.232;2023-08-12T03:20:50;19.70;99.90
17599;DHT22;8918;52.092;5.232;2023-08-12T03:23:15;19.70;99.90
17599;DHT22;8918;52.092;5.232;2023-08-12T03:25:41;19.70;99.90
17599;DHT22;8918;52.092;5.232;2023-08-12T03:28:06;19.70;99.90
17599;DHT22;8918;52.092;5.232;2023-08-12T03:30:32;19.70;99.90
17599;DHT22;8918;52.092;5.232;2023-08-12T03:32:58;19.70;99.90
17599;DHT22;8918;52.092;5.232;2023-08-12T03:35:23;19.70;99.90
17599;DHT22;8918;52.092;5.232;2023-08-12T03:37:49;19.70;99.90
17599;DHT22;8918;52.092;5.232;2023-08-12T03:40:16;19.70;99.90
17599;DHT22;8918;52.092;5.232;2023-08-12T03:42:42;19.70;99.90
17599;DHT22;8918;52.092;5.232;2023-08-12T03:45:08;19.70;99.90
17599;DHT22;8918;52.092;5.232;2023-08-12T03:47:33;19.70;99.90
17599;DHT22;8918;52.092;5.232;2023-08-12T03:49:59;19.70;99.90
17599;DHT22;8918;52.092;5.232;2023-08-12T03:52:24;19.70;99.90
17599;DHT22;8918;52.092;5.232;2023-08-12T03:54:50;19.70;99.90
17599;DHT22;8918;52.092;5.232;2023-08-12T03:57:16;19.70;99.90
17599;DHT22;8918;52.092;5.232;2023-08-12T03:59:41;19.70;99.90
17599;DHT22;8918;52.092;5.232;2023-08-12T04:02:07;19.80;99.90
17599;DHT22;8918;52.092;5.232;2023-08-12T04:04:33;19.80;99.90
17599;DHT22;8918;52.092;5.232;2023-08-12T04:07:01;19.70;99.90
17599;DHT22;8918;52.092;5.232;2023-08-12T04:09:27;19.80;99.90
17599;DHT22;8918;52.092;5.232;2023-08-12T04:11:53;19.70;99.90
17599;DHT22;8918;52.092;5.232;2023-08-12T04:14:18;19.70;99.90
17599;DHT22;8918;52.092;5.232;2023-08-12T04:16:44;19.70;99.90
17599;DHT22;8918;52.092;5.232;2023-08-12T04:19:09;19.80;99.90
17599;DHT22;8918;52.092;5.232;2023-08-12T04:21:35;19.80;99.90
17599;DHT22;8918;52.092;5.232;2023-08-12T04:24:01;19.80;99.90
17599;DHT22;8918;52.092;5.232;2023-08-12T04:26:26;19.80;99.90
17599;DHT22;8918;52.092;5.232;2023-08-12T04:28:52;19.80;99.90
17599;DHT22;8918;52.092;5.232;2023-08-12T04:31:18;19.80;99.90
17599;DHT22;8918;52.092;5.232;2023-08-12T04:33:43;19.80;99.90
17599;DHT22;8918;52.092;5.232;2023-08-12T04:36:09;19.80;99.90
17599;DHT22;8918;52.092;5.232;2023-08-12T04:38:34;19.80;99.90
17599;DHT22;8918;52.092;5.232;2023-08-12T04:41:00;19.80;99.90
17599;DHT22;8918;52.092;5.232;2023-08-12T04:43:26;19.80;99.90
17599;DHT22;8918;52.092;5.232;2023-08-12T04:45:52;19.80;99.90
17599;DHT22;8918;52.092;5.232;2023-08-12T04:48:17;19.90;99.90
17599;DHT22;8918;52.092;5.232;2023-08-12T04:50:43;19.90;99.90
17599;DHT22;8918;52.092;5.232;2023-08-12T04:53:09;19.90;99.90
17599;DHT22;8918;52.092;5.232;2023-08-12T04:55:35;19.90;99.90
17599;DHT22;8918;52.092;5.232;2023-08-12T04:58:01;19.90;99.90
17599;DHT22;8918;52.092;5.232;2023-08-12T05:00:27;19.90;99.90
17599;DHT22;8918;52.092;5.232;2023-08-12T05:02:53;19.90;99.90
17599;DHT22;8918;52.092;5.232;2023-08-12T05:05:19;19.90;99.90
17599;DHT22;8918;52.092;5.232;2023-08-12T05:07:45;19.90;99.90
17599;DHT22;8918;52.092;5.232;2023-08-12T05:10:15;19.90;99.90
17599;DHT22;8918;52.092;5.232;2023-08-12T05:12:41;19.90;99.90
17599;DHT22;8918;52.092;5.232;2023-08-12T05:15:07;19.90;99.90
17599;DHT22;8918;52.092;5.232;2023-08-12T05:17:33;19.90;99.90
17599;DHT22;8918;52.092;5.232;2023-08-12T05:19:59;19.90;99.90
17599;DHT22;8918;52.092;5.232;2023-08-12T05:22:24;19.90;99.90
17599;DHT22;8918;52.092;5.232;2023-08-12T05:24:50;19.90;99.90
17599;DHT22;8918;52.092;5.232;2023-08-12T05:27:15;19.90;99.90
17599;DHT22;8918;52.092;5.232;2023-08-12T05:29:41;19.90;99.90
17599;DHT22;8918;52.092;5.232;2023-08-12T05:32:06;19.90;99.90
17599;DHT22;8918;52.092;5.232;2023-08-12T05:34:32;19.90;99.90
17599;DHT22;8918;52.092;5.232;2023-08-12T05:36:58;19.90;99.90
17599;DHT22;8918;52.092;5.232;2023-08-12T05:39:24;19.90;99.90
17599;DHT22;8918;52.092;5.232;2023-08-12T05:41:49;19.90;99.90
17599;DHT22;8918;52.092;5.232;2023-08-12T05:44:17;19.90;99.90
17599;DHT22;8918;52.092;5.232;2023-08-12T05:46:43;19.90;99.90
17599;DHT22;8918;52.092;5.232;2023-08-12T05:49:09;19.90;99.90
17599;DHT22;8918;52.092;5.232;2023-08-12T05:51:35;19.90;99.90
17599;DHT22;8918;52.092;5.232;2023-08-12T05:54:00;19.90;99.90
17599;DHT22;8918;52.092;5.232;2023-08-12T05:56:26;19.90;99.90
17599;DHT22;8918;52.092;5.232;2023-08-12T05:58:51;19.90;99.90
17599;DHT22;8918;52.092;5.232;2023-08-12T06:01:17;19.90;99.90
17599;DHT22;8918;52.092;5.232;2023-08-12T06:03:43;19.80;99.90
17599;DHT22;8918;52.092;5.232;2023-08-12T06:06:08;19.80;99.90
17599;DHT22;8918;52.092;5.232;2023-08-12T06:08:34;19.80;99.90
17599;DHT22;8918;52.092;5.232;2023-08-12T06:11:00;19.70;99.90
17599;DHT22;8918;52.092;5.232;2023-08-12T06:13:25;19.70;99.90
17599;DHT22;8918;52.092;5.232;2023-08-12T06:15:51;19.70;99.90
17599;DHT22;8918;52.092;5.232;2023-08-12T06:18:17;19.70;99.90
17599;DHT22;8918;52.092;5.232;2023-08-12T06:20:42;19.70;99.90
17599;DHT22;8918;52.092;5.232;2023-08-12T06:23:08;19.70;99.90
17599;DHT22;8918;52.092;5.232;2023-08-12T06:25:33;19.60;99.90
17599;DHT22;8918;52.092;5.232;2023-08-12T06:28:01;19.60;99.90
17599;DHT22;8918;52.092;5.232;2023-08-12T06:30:27;19.60;99.90
17599;DHT22;8918;52.092;5.232;2023-08-12T06:32:52;19.60;99.90
17599;DHT22;8918;52.092;5.232;2023-08-12T06:35:18;19.60;99.90
17599;DHT22;8918;52.092;5.232;2023-08-12T06:37:43;19.50;99.90
17599;DHT22;8918;52.092;5.232;2023-08-12T06:40:09;19.50;99.90
17599;DHT22;8918;52.092;5.232;2023-08-12T06:42:35;19.50;99.90
17599;DHT22;8918;52.092;5.232;2023-08-12T06:45:01;19.50;99.90
17599;DHT22;8918;52.092;5.232;2023-08-12T06:47:29;19.40;99.90
17599;DHT22;8918;52.092;5.232;2023-08-12T06:49:55;19.40;99.90
17599;DHT22;8918;52.092;5.232;2023-08-12T06:52:20;19.40;99.90
17599;DHT22;8918;52.092;5.232;2023-08-12T06:54:46;19.40;99.90
17599;DHT22;8918;52.092;5.232;2023-08-12T06:57:12;19.40;99.90
17599;DHT22;8918;52.092;5.232;2023-08-12T06:59:38;19.40;99.90
17599;DHT22;8918;52.092;5.232;2023-08-12T07:02:04;19.40;99.90
17599;DHT22;8918;52.092;5.232;2023-08-12T07:04:30;19.40;99.90
17599;DHT22;8918;52.092;5.232;2023-08-12T07:06:55;19.40;99.90
17599;DHT22;8918;52.092;5.232;2023-08-12T07:09:21;19.40;99.90
17599;DHT22;8918;52.092;5.232;2023-08-12T07:11:47;19.40;99.90
17599;DHT22;8918;52.092;5.232;2023-08-12T07:14:12;19.40;99.90
17599;DHT22;8918;52.092;5.232;2023-08-12T07:16:38;19.40;99.90
17599;DHT22;8918;52.092;5.232;2023-08-12T07:19:04;19.40;99.90
17599;DHT22;8918;52.092;5.232;2023-08-12T07:21:29;19.40;99.90
17599;DHT22;8918;52.092;5.232;2023-08-12T07:23:55;19.40;99.90
17599;DHT22;8918;52.092;5.232;2023-08-12T07:26:20;19.40;99.90
17599;DHT22;8918;52.092;5.232;2023-08-12T07:28:46;19.40;99.90
17599;DHT22;8918;52.092;5.232;2023-08-12T07:31:12;19.40;99.90
17599;DHT22;8918;52.092;5.232;2023-08-12T07:33:37;19.40;99.90
17599;DHT22;8918;52.092;5.232;2023-08-12T07:36:03;19.40;99.90
17599;DHT22;8918;52.092;5.232;2023-08-12T07:38:29;19.40;99.90
17599;DHT22;8918;52.092;5.232;2023-08-12T07:40:54;19.40;99.90
17599;DHT22;8918;52.092;5.232;2023-08-12T07:43:20;19.40;99.90
17599;DHT22;8918;52.092;5.232;2023-08-12T07:45:51;19.40;99.90
17599;DHT22;8918;52.092;5.232;2023-08-12T07:48:17;19.40;99.90
17599;DHT22;8918;52.092;5.232;2023-08-12T07:50:43;19.40;99.90
17599;DHT22;8918;52.092;5.232;2023-08-12T07:53:08;19.40;99.90
17599;DHT22;8918;52.092;5.232;2023-08-12T07:55:34;19.40;99.90
17599;DHT22;8918;52.092;5.232;2023-08-12T07:58:00;19.40;99.90
17599;DHT22;8918;52.092;5.232;2023-08-12T08:00:26;19.40;99.90
17599;DHT22;8918;52.092;5.232;2023-08-12T08:02:51;19.40;99.90
17599;DHT22;8918;52.092;5.232;2023-08-12T08:05:17;19.40;99.90
17599;DHT22;8918;52.092;5.232;2023-08-12T08:07:42;19.40;99.90
17599;DHT22;8918;52.092;5.232;2023-08-12T08:10:08;19.50;99.90
17599;DHT22;8918;52.092;5.232;2023-08-12T08:12:34;19.50;99.90
17599;DHT22;8918;52.092;5.232;2023-08-12T08:14:59;19.50;99.90
17599;DHT22;8918;52.092;5.232;2023-08-12T08:17:25;19.50;99.90
17599;DHT22;8918;52.092;5.232;2023-08-12T08:19:51;19.50;99.90
17599;DHT22;8918;52.092;5.232;2023-08-12T08:22:16;19.50;99.90
17599;DHT22;8918;52.092;5.232;2023-08-12T08:24:43;19.60;99.90
17599;DHT22;8918;52.092;5.232;2023-08-12T08:27:08;19.60;99.90
17599;DHT22;8918;52.092;5.232;2023-08-12T08:29:34;19.60;99.90
17599;DHT22;8918;52.092;5.232;2023-08-12T08:31:59;19.60;99.90
17599;DHT22;8918;52.092;5.232;2023-08-12T08:34:25;19.70;99.90
17599;DHT22;8918;52.092;5.232;2023-08-12T08:36:51;19.70;99.90
17599;DHT22;8918;52.092;5.232;2023-08-12T08:39:16;19.70;99.90
17599;DHT22;8918;52.092;5.232;2023-08-12T08:41:43;19.70;99.90
17599;DHT22;8918;52.092;5.232;2023-08-12T08:44:13;19.70;99.90
17599;DHT22;8918;52.092;5.232;2023-08-12T08:46:41;19.50;99.90
17599;DHT22;8918;52.092;5.232;2023-08-12T08:49:07;19.40;99.90
17599;DHT22;8918;52.092;5.232;2023-08-12T08:51:34;19.10;99.90
17599;DHT22;8918;52.092;5.232;2023-08-12T08:54:02;18.80;99.90
17599;DHT22;8918;52.092;5.232;2023-08-12T08:56:31;18.60;99.90
17599;DHT22;8918;52.092;5.232;2023-08-12T08:58:58;18.40;99.90
17599;DHT22;8918;52.092;5.232;2023-08-12T09:01:23;18.30;99.90
17599;DHT22;8918;52.092;5.232;2023-08-12T09:03:53;18.20;99.90
17599;DHT22;8918;52.092;5.232;2023-08-12T09:06:21;18.20;99.90
17599;DHT22;8918;52.092;5.232;2023-08-12T09:08:48;18.20;99.90
17599;DHT22;8918;52.092;5.232;2023-08-12T09:11:17;18.20;99.90
17599;DHT22;8918;52.092;5.232;2023-08-12T09:13:43;18.30;99.90
17599;DHT22;8918;52.092;5.232;2023-08-12T09:16:08;18.30;99.90
17599;DHT22;8918;52.092;5.232;2023-08-12T09:18:35;18.30;99.90
17599;DHT22;8918;52.092;5.232;2023-08-12T09:21:02;18.30;99.90
17599;DHT22;8918;52.092;5.232;2023-08-12T09:23:28;18.40;99.90
17599;DHT22;8918;52.092;5.232;2023-08-12T09:25:53;18.40;99.90
17599;DHT22;8918;52.092;5.232;2023-08-12T09:28:19;18.40;99.90
17599;DHT22;8918;52.092;5.232;2023-08-12T09:30:50;18.40;99.90
17599;DHT22;8918;52.092;5.232;2023-08-12T09:33:26;18.40;99.90
17599;DHT22;8918;52.092;5.232;2023-08-12T09:35:54;18.50;99.90
17599;DHT22;8918;52.092;5.232;2023-08-12T09:38:22;18.50;99.90
17599;DHT22;8918;52.092;5.232;2023-08-12T09:40:48;18.60;99.90
17599;DHT22;8918;52.092;5.232;2023-08-12T09:43:13;18.60;99.90
17599;DHT22;8918;52.092;5.232;2023-08-12T09:45:44;18.70;99.90
17599;DHT22;8918;52.092;5.232;2023-08-12T09:48:10;18.80;99.90
17599;DHT22;8918;52.092;5.232;2023-08-12T09:50:36;18.90;99.90
17599;DHT22;8918;52.092;5.232;2023-08-12T09:53:02;19.00;99.90
17599;DHT22;8918;52.092;5.232;2023-08-12T09:55:29;19.00;99.90
17599;DHT22;8918;52.092;5.232;2023-08-12T09:57:58;19.20;99.90
17599;DHT22;8918;52.092;5.232;2023-08-12T10:00:24;19.20;99.90
17599;DHT22;8918;52.092;5.232;2023-08-12T10:02:51;19.20;99.90
17599;DHT22;8918;52.092;5.232;2023-08-12T10:05:32;19.20;99.90
17599;DHT22;8918;52.092;5.232;2023-08-12T10:07:58;19.40;99.90
17599;DHT22;8918;52.092;5.232;2023-08-12T10:10:27;19.60;99.90
17599;DHT22;8918;52.092;5.232;2023-08-12T10:12:54;19.70;99.90
17599;DHT22;8918;52.092;5.232;2023-08-12T10:15:20;19.90;99.90
17599;DHT22;8918;52.092;5.232;2023-08-12T10:17:47;20.10;99.90
17599;DHT22;8918;52.092;5.232;2023-08-12T10:20:19;20.30;99.90
17599;DHT22;8918;52.092;5.232;2023-08-12T10:22:46;20.40;99.90
17599;DHT22;8918;52.092;5.232;2023-08-12T10:25:13;20.50;99.90
17599;DHT22;8918;52.092;5.232;2023-08-12T10:27:40;20.70;99.90
17599;DHT22;8918;52.092;5.232;2023-08-12T10:30:06;20.90;99.90
17599;DHT22;8918;52.092;5.232;2023-08-12T10:32:33;20.90;99.90
17599;DHT22;8918;52.092;5.232;2023-08-12T10:35:00;20.90;99.90
17599;DHT22;8918;52.092;5.232;2023-08-12T10:37:26;20.80;99.90
17599;DHT22;8918;52.092;5.232;2023-08-12T10:39:53;20.80;99.90
17599;DHT22;8918;52.092;5.232;2023-08-12T10:42:59;20.90;99.90
17599;DHT22;8918;52.092;5.232;2023-08-12T10:45:41;20.90;99.90
17599;DHT22;8918;52.092;5.232;2023-08-12T10:48:16;21.10;99.90
17599;DHT22;8918;52.092;5.232;2023-08-12T10:50:48;21.10;99.90
17599;DHT22;8918;52.092;5.232;2023-08-12T10:53:38;21.20;99.90
17599;DHT22;8918;52.092;5.232;2023-08-12T10:56:04;21.20;99.90
17599;DHT22;8918;52.092;5.232;2023-08-12T10:58:54;21.20;99.90
17599;DHT22;8918;52.092;5.232;2023-08-12T11:01:19;21.20;99.90
17599;DHT22;8918;52.092;5.232;2023-08-12T11:03:48;21.20;99.90
17599;DHT22;8918;52.092;5.232;2023-08-12T11:06:14;21.30;99.90
17599;DHT22;8918;52.092;5.232;2023-08-12T11:08:47;21.70;99.90
17599;DHT22;8918;52.092;5.232;2023-08-12T11:11:21;22.00;99.90
17599;DHT22;8918;52.092;5.232;2023-08-12T11:14:01;22.30;99.90
17599;DHT22;8918;52.092;5.232;2023-08-12T11:16:37;22.50;99.90
17599;DHT22;8918;52.092;5.232;2023-08-12T11:19:03;22.50;99.90
17599;DHT22;8918;52.092;5.232;2023-08-12T11:21:29;22.20;99.90
17599;DHT22;8918;52.092;5.232;2023-08-12T11:23:55;22.30;99.90
17599;DHT22;8918;52.092;5.232;2023-08-12T11:26:24;22.40;99.90
17599;DHT22;8918;52.092;5.232;2023-08-12T11:28:50;22.40;99.90
17599;DHT22;8918;52.092;5.232;2023-08-12T11:31:16;22.40;99.90
17599;DHT22;8918;52.092;5.232;2023-08-12T11:33:43;22.30;99.90
17599;DHT22;8918;52.092;5.232;2023-08-12T11:36:09;22.40;99.90
17599;DHT22;8918;52.092;5.232;2023-08-12T11:38:34;22.70;99.90
17599;DHT22;8918;52.092;5.232;2023-08-12T11:41:01;22.90;99.90
17599;DHT22;8918;52.092;5.232;2023-08-12T11:43:32;23.10;99.90
17599;DHT22;8918;52.092;5.232;2023-08-12T11:45:59;23.20;99.90
17599;DHT22;8918;52.092;5.232;2023-08-12T11:48:27;23.40;99.90
17599;DHT22;8918;52.092;5.232;2023-08-12T11:50:53;23.70;99.90
17599;DHT22;8918;52.092;5.232;2023-08-12T11:53:19;23.80;99.90
17599;DHT22;8918;52.092;5.232;2023-08-12T11:55:45;24.00;99.90
17599;DHT22;8918;52.092;5.232;2023-08-12T11:58:13;24.00;99.90
17599;DHT22;8918;52.092;5.232;2023-08-12T12:00:39;23.90;99.90
17599;DHT22;8918;52.092;5.232;2023-08-12T12:03:04;23.80;99.90
17599;DHT22;8918;52.092;5.232;2023-08-12T12:05:31;23.70;99.90
17599;DHT22;8918;52.092;5.232;2023-08-12T12:07:59;23.40;99.90
17599;DHT22;8918;52.092;5.232;2023-08-12T12:10:32;23.20;99.90
17599;DHT22;8918;52.092;5.232;2023-08-12T12:12:59;23.10;99.90
17599;DHT22;8918;52.092;5.232;2023-08-12T12:15:25;23.10;99.90
17599;DHT22;8918;52.092;5.232;2023-08-12T12:17:50;23.30;99.90
17599;DHT22;8918;52.092;5.232;2023-08-12T12:20:16;23.40;99.90
17599;DHT22;8918;52.092;5.232;2023-08-12T12:22:44;23.60;99.90
17599;DHT22;8918;52.092;5.232;2023-08-12T12:25:14;23.70;99.90
17599;DHT22;8918;52.092;5.232;2023-08-12T12:27:42;23.80;99.90
17599;DHT22;8918;52.092;5.232;2023-08-12T12:30:09;23.90;99.90
17599;DHT22;8918;52.092;5.232;2023-08-12T12:32:35;24.00;99.90
17599;DHT22;8918;52.092;5.232;2023-08-12T12:35:01;24.00;99.90
17599;DHT22;8918;52.092;5.232;2023-08-12T12:37:27;24.00;99.90
17599;DHT22;8918;52.092;5.232;2023-08-12T12:39:52;24.20;99.90
17599;DHT22;8918;52.092;5.232;2023-08-12T12:42:18;24.10;99.90
17599;DHT22;8918;52.092;5.232;2023-08-12T12:44:44;24.10;99.90
17599;DHT22;8918;52.092;5.232;2023-08-12T12:47:09;24.00;99.90
17599;DHT22;8918;52.092;5.232;2023-08-12T12:49:38;24.00;99.90
17599;DHT22;8918;52.092;5.232;2023-08-12T12:52:04;24.00;99.90
17599;DHT22;8918;52.092;5.232;2023-08-12T12:54:30;23.90;99.90
17599;DHT22;8918;52.092;5.232;2023-08-12T12:56:56;23.80;99.90
17599;DHT22;8918;52.092;5.232;2023-08-12T12:59:22;23.80;99.90
17599;DHT22;8918;52.092;5.232;2023-08-12T13:01:48;23.70;99.90
17599;DHT22;8918;52.092;5.232;2023-08-12T13:04:14;23.60;99.90
17599;DHT22;8918;52.092;5.232;2023-08-12T13:06:39;23.70;99.90
17599;DHT22;8918;52.092;5.232;2023-08-12T13:09:05;23.80;99.90
17599;DHT22;8918;52.092;5.232;2023-08-12T13:11:32;24.00;99.90
17599;DHT22;8918;52.092;5.232;2023-08-12T13:14:00;24.30;99.90
17599;DHT22;8918;52.092;5.232;2023-08-12T13:16:25;24.40;99.90
17599;DHT22;8918;52.092;5.232;2023-08-12T13:18:51;24.50;99.90
17599;DHT22;8918;52.092;5.232;2023-08-12T13:21:17;24.60;99.90
17599;DHT22;8918;52.092;5.232;2023-08-12T13:23:42;24.60;99.90
17599;DHT22;8918;52.092;5.232;2023-08-12T13:26:08;24.60;99.90
17599;DHT22;8918;52.092;5.232;2023-08-12T13:28:34;24.60;99.90
17599;DHT22;8918;52.092;5.232;2023-08-12T13:30:59;24.70;99.90
17599;DHT22;8918;52.092;5.232;2023-08-12T13:33:25;24.70;99.90
17599;DHT22;8918;52.092;5.232;2023-08-12T13:35:51;24.60;99.90
17599;DHT22;8918;52.092;5.232;2023-08-12T13:38:16;24.50;99.90
17599;DHT22;8918;52.092;5.232;2023-08-12T13:40:42;24.50;99.90
17599;DHT22;8918;52.092;5.232;2023-08-12T13:43:07;24.40;99.90
17599;DHT22;8918;52.092;5.232;2023-08-12T13:45:33;24.20;99.90
17599;DHT22;8918;52.092;5.232;2023-08-12T13:47:59;24.10;99.90
17599;DHT22;8918;52.092;5.232;2023-08-12T13:50:24;24.10;99.90
17599;DHT22;8918;52.092;5.232;2023-08-12T13:52:50;24.30;99.90
17599;DHT22;8918;52.092;5.232;2023-08-12T13:55:16;24.50;99.90
17599;DHT22;8918;52.092;5.232;2023-08-12T13:57:42;24.70;99.90
17599;DHT22;8918;52.092;5.232;2023-08-12T14:00:07;24.80;99.90
17599;DHT22;8918;52.092;5.232;2023-08-12T14:02:36;24.80;99.90
17599;DHT22;8918;52.092;5.232;2023-08-12T14:05:02;24.60;99.90
17599;DHT22;8918;52.092;5.232;2023-08-12T14:07:28;24.30;99.90
17599;DHT22;8918;52.092;5.232;2023-08-12T14:09:54;24.00;99.90
17599;DHT22;8918;52.092;5.232;2023-08-12T14:12:20;24.00;99.90
17599;DHT22;8918;52.092;5.232;2023-08-12T14:14:45;24.00;99.90
17599;DHT22;8918;52.092;5.232;2023-08-12T14:17:11;24.20;99.90
17599;DHT22;8918;52.092;5.232;2023-08-12T14:19:40;24.40;99.90
17599;DHT22;8918;52.092;5.232;2023-08-12T14:22:07;24.60;99.90
17599;DHT22;8918;52.092;5.232;2023-08-12T14:24:33;24.60;99.90
17599;DHT22;8918;52.092;5.232;2023-08-12T14:26:58;24.50;99.90
17599;DHT22;8918;52.092;5.232;2023-08-12T14:29:24;24.20;99.90
17599;DHT22;8918;52.092;5.232;2023-08-12T14:31:51;24.20;99.90
17599;DHT22;8918;52.092;5.232;2023-08-12T14:34:17;24.20;99.90
17599;DHT22;8918;52.092;5.232;2023-08-12T14:36:43;24.10;99.90
17599;DHT22;8918;52.092;5.232;2023-08-12T14:39:08;24.10;99.90
17599;DHT22;8918;52.092;5.232;2023-08-12T14:41:34;24.20;99.90
17599;DHT22;8918;52.092;5.232;2023-08-12T14:44:00;24.20;99.90
17599;DHT22;8918;52.092;5.232;2023-08-12T14:46:25;24.30;99.90
17599;DHT22;8918;52.092;5.232;2023-08-12T14:48:51;24.50;99.90
17599;DHT22;8918;52.092;5.232;2023-08-12T14:51:18;24.60;99.90
17599;DHT22;8918;52.092;5.232;2023-08-12T14:53:44;24.60;99.90
17599;DHT22;8918;52.092;5.232;2023-08-12T14:56:10;24.60;99.90
17599;DHT22;8918;52.092;5.232;2023-08-12T14:58:35;24.70;99.90
17599;DHT22;8918;52.092;5.232;2023-08-12T15:01:01;24.80;99.90
17599;DHT22;8918;52.092;5.232;2023-08-12T15:03:28;24.80;99.90
17599;DHT22;8918;52.092;5.232;2023-08-12T15:06:00;24.70;99.90
17599;DHT22;8918;52.092;5.232;2023-08-12T15:08:27;24.50;99.90
17599;DHT22;8918;52.092;5.232;2023-08-12T15:10:53;24.30;99.90
17599;DHT22;8918;52.092;5.232;2023-08-12T15:13:19;24.20;99.90
17599;DHT22;8918;52.092;5.232;2023-08-12T15:15:49;24.20;99.90
17599;DHT22;8918;52.092;5.232;2023-08-12T15:18:15;24.20;99.90
17599;DHT22;8918;52.092;5.232;2023-08-12T15:20:41;24.00;99.90
17599;DHT22;8918;52.092;5.232;2023-08-12T15:23:07;23.90;99.90
17599;DHT22;8918;52.092;5.232;2023-08-12T15:25:32;23.80;99.90
17599;DHT22;8918;52.092;5.232;2023-08-12T15:27:58;23.90;99.90
17599;DHT22;8918;52.092;5.232;2023-08-12T15:30:23;24.10;99.90
17599;DHT22;8918;52.092;5.232;2023-08-12T15:32:49;24.10;99.90
17599;DHT22;8918;52.092;5.232;2023-08-12T15:35:15;24.20;99.90
17599;DHT22;8918;52.092;5.232;2023-08-12T15:37:41;24.20;99.90
17599;DHT22;8918;52.092;5.232;2023-08-12T15:40:07;24.40;99.90